createdAt,value
2018-04-08T00:00:18.748Z,87.79
2018-04-08T00:01:18.832Z,87.88
2018-04-08T00:02:18.772Z,87.88
2018-04-08T00:03:18.844Z,87.98
2018-04-08T00:04:18.792Z,87.98
2018-04-08T00:05:18.860Z,87.98
2018-04-08T00:06:18.817Z,87.98
2018-04-08T00:07:18.875Z,88.07
2018-04-08T00:08:18.834Z,88.07
2018-04-08T00:09:18.888Z,88.07
2018-04-08T00:10:18.855Z,88.07
2018-04-08T00:11:18.900Z,88.07
2018-04-08T00:12:18.880Z,88.07
2018-04-08T00:13:18.926Z,88.07
2018-04-08T00:14:18.907Z,88.17
2018-04-08T00:15:18.929Z,88.17
2018-04-08T00:16:18.936Z,88.17
2018-04-08T00:17:19.049Z,88.17
2018-04-08T00:18:18.948Z,88.17
2018-04-08T00:19:19.069Z,88.17
2018-04-08T00:20:18.969Z,88.26
2018-04-08T00:21:19.089Z,88.26
2018-04-08T00:22:18.989Z,88.26
2018-04-08T00:23:19.087Z,88.36
2018-04-08T00:24:19.022Z,88.36
2018-04-08T00:25:19.099Z,88.36
2018-04-08T00:26:19.049Z,88.36
2018-04-08T00:27:19.114Z,88.36
2018-04-08T00:28:19.064Z,88.36
2018-04-08T00:29:19.128Z,88.36
2018-04-08T00:30:19.077Z,88.36
2018-04-08T00:31:19.140Z,88.36
2018-04-08T00:32:19.109Z,88.31
2018-04-08T00:33:19.152Z,88.31
2018-04-08T00:34:19.118Z,88.31
2018-04-08T00:35:19.168Z,88.31
2018-04-08T00:36:19.143Z,88.41
2018-04-08T00:37:19.197Z,88.41
2018-04-08T00:38:19.170Z,88.41
2018-04-08T00:39:19.197Z,88.41
2018-04-08T00:40:19.185Z,88.51
2018-04-08T00:41:19.309Z,88.51
2018-04-08T00:42:19.212Z,88.51
2018-04-08T00:43:19.322Z,88.60
2018-04-08T00:44:19.231Z,88.60
2018-04-08T00:45:19.340Z,88.60
2018-04-08T00:46:19.268Z,88.60
2018-04-08T00:47:19.352Z,88.70
2018-04-08T00:48:19.286Z,88.70
2018-04-08T00:49:19.364Z,88.70
2018-04-08T00:50:19.298Z,88.70
2018-04-08T00:51:19.379Z,88.70
2018-04-08T00:52:19.316Z,88.70
2018-04-08T00:53:19.391Z,88.79
2018-04-08T00:54:19.340Z,88.79
2018-04-08T00:55:19.402Z,88.79
2018-04-08T00:56:19.363Z,88.79
2018-04-08T00:57:19.420Z,88.79
2018-04-08T00:58:19.384Z,88.79
2018-04-08T00:59:19.441Z,88.89
2018-04-08T01:00:19.416Z,88.89
2018-04-08T01:01:19.446Z,88.89
2018-04-08T01:02:19.425Z,88.89
2018-04-08T01:03:19.458Z,88.98
2018-04-08T01:04:19.457Z,88.98
2018-04-08T01:05:19.478Z,88.98
2018-04-08T01:06:19.472Z,88.98
2018-04-08T01:07:19.588Z,88.98
2018-04-08T01:08:19.491Z,88.98
2018-04-08T01:09:19.601Z,89.07
2018-04-08T01:10:19.524Z,89.07
2018-04-08T01:11:19.620Z,89.17
2018-04-08T01:12:19.550Z,89.17
2018-04-08T01:13:19.634Z,89.17
2018-04-08T01:14:19.567Z,89.17
2018-04-08T01:15:19.642Z,89.17
2018-04-08T01:16:19.578Z,89.17
2018-04-08T01:17:19.659Z,89.17
2018-04-08T01:18:19.614Z,89.17
2018-04-08T01:19:19.676Z,89.13
2018-04-08T01:20:19.630Z,89.13
2018-04-08T01:21:19.683Z,89.13
2018-04-08T01:22:19.645Z,89.13
2018-04-08T01:23:19.700Z,89.13
2018-04-08T01:24:19.667Z,89.13
2018-04-08T01:25:19.717Z,89.13
2018-04-08T01:26:19.686Z,89.22
2018-04-08T01:27:19.731Z,89.22
2018-04-08T01:28:19.707Z,89.22
2018-04-08T01:29:19.746Z,89.22
2018-04-08T01:30:19.731Z,89.22
2018-04-08T01:31:19.757Z,89.22
2018-04-08T01:32:19.762Z,89.22
2018-04-08T01:33:19.870Z,89.22
2018-04-08T01:34:19.772Z,89.32
2018-04-08T01:35:19.887Z,89.32
2018-04-08T01:36:19.799Z,89.32
2018-04-08T01:37:19.897Z,89.32
2018-04-08T01:38:19.818Z,89.32
2018-04-08T01:39:19.910Z,89.32
2018-04-08T01:40:19.840Z,89.41
2018-04-08T01:41:19.934Z,89.41
2018-04-08T01:42:19.865Z,89.41
2018-04-08T01:43:19.941Z,89.41
2018-04-08T01:44:19.884Z,89.41
2018-04-08T01:45:19.950Z,89.51
2018-04-08T01:46:19.896Z,89.51
2018-04-08T01:47:19.968Z,89.51
2018-04-08T01:48:19.917Z,89.61
2018-04-08T01:49:19.984Z,89.61
2018-04-08T01:50:19.937Z,89.61
2018-04-08T01:51:20.002Z,89.61
2018-04-08T01:52:19.966Z,89.61
2018-04-08T01:53:20.013Z,89.61
2018-04-08T01:54:19.983Z,89.61
2018-04-08T01:55:20.034Z,89.61
2018-04-08T01:56:20.004Z,89.61
2018-04-08T01:57:20.039Z,89.61
2018-04-08T01:58:20.024Z,89.61
2018-04-08T01:59:20.056Z,89.61
2018-04-08T02:00:20.046Z,89.61
2018-04-08T02:01:22.112Z,89.61
2018-04-08T02:02:20.074Z,89.70
2018-04-08T02:03:20.208Z,89.70
2018-04-08T02:04:20.091Z,89.70
2018-04-08T02:05:20.199Z,89.70
2018-04-08T02:06:20.114Z,89.70
2018-04-08T02:07:20.213Z,89.70
2018-04-08T02:08:20.131Z,89.70
2018-04-08T02:09:20.221Z,89.70
2018-04-08T02:10:20.183Z,89.79
2018-04-08T02:11:20.235Z,89.79
2018-04-08T02:12:20.171Z,89.79
2018-04-08T02:13:20.245Z,89.79
2018-04-08T02:14:20.192Z,89.84
2018-04-08T02:15:20.309Z,89.84
2018-04-08T02:16:20.210Z,89.84
2018-04-08T02:17:20.274Z,89.84
2018-04-08T02:18:20.233Z,89.94
2018-04-08T02:19:20.286Z,89.94
2018-04-08T02:20:20.259Z,89.94
2018-04-08T02:21:20.297Z,90.03
2018-04-08T02:22:20.280Z,90.03
2018-04-08T02:23:20.314Z,90.03
2018-04-08T02:24:20.296Z,90.13
2018-04-08T02:25:21.355Z,90.13
2018-04-08T02:26:20.329Z,90.13
2018-04-08T02:27:20.344Z,90.13
2018-04-08T02:28:20.350Z,90.13
2018-04-08T02:29:20.466Z,90.13
2018-04-08T02:30:20.362Z,90.22
2018-04-08T02:31:20.471Z,90.22
2018-04-08T02:32:20.382Z,90.22
2018-04-08T02:33:20.487Z,90.22
2018-04-08T02:34:20.404Z,90.22
2018-04-08T02:35:20.497Z,90.22
2018-04-08T02:36:20.430Z,90.22
2018-04-08T02:37:20.516Z,90.32
2018-04-08T02:38:20.448Z,90.32
2018-04-08T02:39:20.531Z,90.32
2018-04-08T02:40:20.461Z,90.32
2018-04-08T02:41:20.543Z,90.32
2018-04-08T02:42:20.487Z,90.32
2018-04-08T02:43:20.559Z,90.42
2018-04-08T02:44:20.511Z,90.42
2018-04-08T02:45:20.569Z,90.42
2018-04-08T02:46:20.528Z,90.42
2018-04-08T02:47:20.582Z,90.42
2018-04-08T02:48:20.543Z,90.42
2018-04-08T02:49:20.595Z,90.42
2018-04-08T02:50:20.566Z,90.42
2018-04-08T02:51:20.615Z,90.42
2018-04-08T02:52:20.585Z,90.42
2018-04-08T02:53:20.624Z,90.51
2018-04-08T02:54:20.612Z,90.51
2018-04-08T02:55:20.635Z,90.51
2018-04-08T02:56:20.629Z,90.51
2018-04-08T02:57:20.753Z,90.51
2018-04-08T02:58:20.645Z,90.51
2018-04-08T02:59:20.766Z,90.51
2018-04-08T03:00:20.668Z,90.51
2018-04-08T03:01:20.785Z,90.61
2018-04-08T03:02:20.687Z,90.61
2018-04-08T03:03:20.790Z,90.61
2018-04-08T03:04:20.721Z,90.61
2018-04-08T03:05:20.811Z,90.61
2018-04-08T03:06:20.728Z,90.61
2018-04-08T03:07:20.821Z,90.61
2018-04-08T03:08:20.750Z,90.61
2018-04-08T03:09:20.834Z,90.61
2018-04-08T03:10:20.774Z,90.61
2018-04-08T03:11:20.897Z,90.61
2018-04-08T03:12:20.793Z,90.61
2018-04-08T03:13:20.905Z,90.70
2018-04-08T03:14:20.819Z,90.70
2018-04-08T03:15:20.920Z,90.70
2018-04-08T03:16:20.827Z,90.70
2018-04-08T03:17:20.935Z,90.70
2018-04-08T03:18:20.850Z,90.70
2018-04-08T03:19:20.945Z,90.70
2018-04-08T03:20:20.874Z,90.70
2018-04-08T03:21:20.958Z,90.61
2018-04-08T03:22:20.890Z,90.61
2018-04-08T03:23:20.979Z,90.61
2018-04-08T03:24:20.906Z,90.61
2018-04-08T03:25:20.988Z,90.61
2018-04-08T03:26:20.931Z,90.61
2018-04-08T03:27:21.004Z,90.61
2018-04-08T03:28:20.952Z,90.61
2018-04-08T03:29:21.011Z,90.61
2018-04-08T03:30:20.968Z,90.70
2018-04-08T03:31:21.027Z,90.70
2018-04-08T03:32:20.987Z,90.70
2018-04-08T03:33:21.053Z,90.61
2018-04-08T03:34:21.017Z,90.61
2018-04-08T03:35:21.054Z,90.61
2018-04-08T03:36:21.030Z,90.61
2018-04-08T03:37:21.072Z,90.61
2018-04-08T03:38:21.054Z,90.61
2018-04-08T03:39:21.085Z,90.61
2018-04-08T03:40:21.071Z,90.61
2018-04-08T03:41:21.196Z,90.61
2018-04-08T03:42:21.099Z,90.51
2018-04-08T03:43:21.212Z,90.51
2018-04-08T03:44:21.114Z,90.51
2018-04-08T03:45:21.235Z,90.51
2018-04-08T03:46:21.132Z,90.51
2018-04-08T03:47:21.248Z,90.51
2018-04-08T03:48:21.154Z,90.51
2018-04-08T03:49:21.253Z,90.51
2018-04-08T03:50:21.171Z,90.61
2018-04-08T03:51:21.283Z,90.61
2018-04-08T03:52:21.191Z,90.61
2018-04-08T03:53:21.286Z,90.61
2018-04-08T03:54:21.210Z,90.61
2018-04-08T03:55:21.296Z,90.61
2018-04-08T03:56:21.233Z,90.61
2018-04-08T03:57:21.312Z,90.70
2018-04-08T03:58:21.252Z,90.70
2018-04-08T03:59:21.330Z,90.70
2018-04-08T04:00:21.267Z,90.70
2018-04-08T04:01:21.333Z,90.80
2018-04-08T04:02:21.287Z,90.80
2018-04-08T04:03:21.352Z,90.80
2018-04-08T04:04:21.312Z,90.80
2018-04-08T04:05:21.381Z,90.80
2018-04-08T04:06:21.328Z,90.89
2018-04-08T04:07:21.382Z,90.89
2018-04-08T04:08:21.352Z,90.89
2018-04-08T04:09:21.397Z,90.99
2018-04-08T04:10:21.373Z,90.99
2018-04-08T04:11:21.408Z,91.08
2018-04-08T04:12:21.393Z,91.08
2018-04-08T04:13:21.431Z,91.08
2018-04-08T04:14:21.409Z,91.13
2018-04-08T04:15:21.452Z,91.22
2018-04-08T04:16:21.428Z,91.22
2018-04-08T04:17:21.557Z,91.22
2018-04-08T04:18:21.466Z,91.32
2018-04-08T04:19:21.574Z,91.32
2018-04-08T04:20:21.467Z,91.32
2018-04-08T04:21:21.579Z,91.32
2018-04-08T04:22:21.504Z,91.32
2018-04-08T04:23:21.591Z,91.32
2018-04-08T04:24:21.512Z,91.32
2018-04-08T04:25:21.604Z,91.27
2018-04-08T04:26:21.529Z,91.27
2018-04-08T04:27:21.628Z,91.27
2018-04-08T04:28:21.548Z,91.17
2018-04-08T04:29:21.643Z,91.17
2018-04-08T04:30:21.564Z,91.17
2018-04-08T04:31:21.650Z,91.08
2018-04-08T04:32:21.583Z,91.08
2018-04-08T04:33:21.656Z,91.08
2018-04-08T04:34:21.604Z,91.08
2018-04-08T04:35:21.684Z,90.99
2018-04-08T04:36:21.637Z,90.99
2018-04-08T04:37:21.689Z,91.08
2018-04-08T04:38:21.648Z,91.08
2018-04-08T04:39:21.701Z,91.08
2018-04-08T04:40:21.685Z,91.08
2018-04-08T04:41:21.721Z,91.08
2018-04-08T04:42:21.685Z,91.08
2018-04-08T04:43:21.730Z,91.08
2018-04-08T04:44:21.705Z,91.08
2018-04-08T04:45:21.755Z,91.08
2018-04-08T04:46:21.723Z,91.08
2018-04-08T04:47:21.763Z,91.08
2018-04-08T04:48:21.739Z,91.08
2018-04-08T04:49:21.773Z,91.08
2018-04-08T04:50:21.755Z,90.99
2018-04-08T04:51:21.885Z,90.99
2018-04-08T04:52:21.788Z,90.99
2018-04-08T04:53:21.907Z,90.99
2018-04-08T04:54:21.801Z,90.99
2018-04-08T04:55:21.915Z,90.89
2018-04-08T04:56:21.816Z,90.89
2018-04-08T04:57:21.931Z,90.89
2018-04-08T04:58:21.840Z,90.89
2018-04-08T04:59:21.940Z,90.80
2018-04-08T05:00:21.856Z,90.80
2018-04-08T05:01:21.956Z,90.80
2018-04-08T05:02:21.873Z,90.80
2018-04-08T05:03:21.973Z,90.80
2018-04-08T05:04:21.891Z,90.70
2018-04-08T05:05:21.980Z,90.70
2018-04-08T05:06:21.916Z,90.70
2018-04-08T05:07:21.992Z,90.70
2018-04-08T05:08:21.939Z,90.70
2018-04-08T05:09:22.006Z,90.70
2018-04-08T05:10:21.954Z,90.70
2018-04-08T05:11:22.025Z,90.70
2018-04-08T05:12:21.976Z,90.70
2018-04-08T05:13:22.034Z,90.61
2018-04-08T05:14:21.994Z,90.65
2018-04-08T05:15:22.054Z,90.65
2018-04-08T05:16:22.017Z,90.56
2018-04-08T05:17:22.058Z,90.56
2018-04-08T05:18:22.031Z,90.56
2018-04-08T05:19:22.078Z,90.46
2018-04-08T05:20:22.063Z,90.36
2018-04-08T05:21:22.055Z,90.36
2018-04-08T05:22:22.094Z,90.36
2018-04-08T05:23:22.072Z,90.27
2018-04-08T05:24:22.211Z,90.17
2018-04-08T05:25:22.105Z,90.08
2018-04-08T05:26:22.227Z,90.08
2018-04-08T05:27:22.118Z,89.98
2018-04-08T05:28:22.240Z,89.98
2018-04-08T05:29:22.144Z,89.94
2018-04-08T05:30:22.252Z,89.84
2018-04-08T05:31:22.153Z,89.84
2018-04-08T05:32:22.268Z,89.75
2018-04-08T05:33:22.175Z,89.75
2018-04-08T05:34:22.282Z,89.75
2018-04-08T05:35:22.193Z,89.65
2018-04-08T05:36:22.295Z,89.65
2018-04-08T05:37:22.212Z,89.55
2018-04-08T05:38:22.409Z,89.55
2018-04-08T05:39:22.238Z,89.55
2018-04-08T05:40:22.421Z,89.55
2018-04-08T05:41:22.277Z,89.55
2018-04-08T05:42:22.436Z,89.55
2018-04-08T05:43:22.272Z,89.55
2018-04-08T05:44:22.343Z,89.55
2018-04-08T05:45:22.284Z,89.55
2018-04-08T05:46:22.472Z,89.55
2018-04-08T05:47:22.309Z,89.60
2018-04-08T05:48:22.480Z,89.69
2018-04-08T05:49:22.336Z,89.69
2018-04-08T05:50:22.500Z,89.69
2018-04-08T05:51:22.353Z,89.69
2018-04-08T05:52:22.512Z,89.79
2018-04-08T05:53:22.386Z,89.79
2018-04-08T05:54:22.525Z,89.79
2018-04-08T05:55:22.378Z,89.89
2018-04-08T05:56:22.540Z,89.89
2018-04-08T05:57:22.403Z,89.89
2018-04-08T05:58:22.551Z,89.98
2018-04-08T05:59:22.419Z,89.98
2018-04-08T06:00:22.568Z,89.98
2018-04-08T06:01:22.455Z,89.98
2018-04-08T06:02:22.575Z,90.08
2018-04-08T06:03:22.464Z,90.08
2018-04-08T06:04:22.595Z,90.08
2018-04-08T06:05:22.476Z,90.17
2018-04-08T06:06:22.604Z,90.17
2018-04-08T06:07:22.498Z,90.17
2018-04-08T06:08:22.622Z,90.17
2018-04-08T06:09:22.519Z,90.17
2018-04-08T06:10:22.633Z,90.26
2018-04-08T06:11:22.533Z,90.26
2018-04-08T06:12:22.746Z,90.17
2018-04-08T06:13:22.560Z,90.26
2018-04-08T06:14:22.754Z,90.26
2018-04-08T06:15:22.595Z,90.26
2018-04-08T06:16:22.773Z,90.17
2018-04-08T06:17:22.592Z,90.17
2018-04-08T06:18:22.796Z,90.17
2018-04-08T06:19:22.614Z,90.17
2018-04-08T06:20:22.809Z,90.08
2018-04-08T06:21:22.661Z,90.08
2018-04-08T06:22:22.820Z,89.98
2018-04-08T06:23:22.651Z,90.03
2018-04-08T06:24:22.821Z,89.93
2018-04-08T06:25:22.681Z,89.83
2018-04-08T06:26:22.846Z,89.83
2018-04-08T06:27:22.696Z,89.74
2018-04-08T06:28:22.850Z,89.74
2018-04-08T06:29:22.706Z,89.64
2018-04-08T06:30:22.876Z,89.64
2018-04-08T06:31:22.717Z,89.64
2018-04-08T06:32:22.881Z,89.54
2018-04-08T06:33:22.739Z,89.54
2018-04-08T06:34:22.891Z,89.54
2018-04-08T06:35:22.758Z,89.45
2018-04-08T06:36:22.907Z,89.45
2018-04-08T06:37:22.780Z,89.36
2018-04-08T06:38:22.919Z,89.40
2018-04-08T06:39:22.792Z,89.31
2018-04-08T06:40:22.931Z,89.31
2018-04-08T06:41:22.818Z,89.31
2018-04-08T06:42:22.947Z,89.31
2018-04-08T06:43:22.829Z,89.21
2018-04-08T06:44:23.090Z,89.21
2018-04-08T06:45:22.864Z,89.12
2018-04-08T06:46:22.976Z,89.12
2018-04-08T06:47:22.873Z,89.12
2018-04-08T06:48:23.088Z,89.02
2018-04-08T06:49:22.898Z,89.02
2018-04-08T06:50:23.100Z,89.02
2018-04-08T06:51:22.907Z,88.92
2018-04-08T06:52:23.020Z,88.97
2018-04-08T06:53:22.929Z,88.97
2018-04-08T06:54:23.025Z,88.87
2018-04-08T06:55:22.956Z,88.78
2018-04-08T06:56:23.043Z,88.78
2018-04-08T06:57:22.968Z,88.78
2018-04-08T06:58:23.101Z,88.78
2018-04-08T06:59:22.987Z,88.68
2018-04-08T07:00:23.063Z,88.68
2018-04-08T07:01:23.047Z,88.59
2018-04-08T07:02:23.084Z,88.59
2018-04-08T07:03:23.021Z,88.59
2018-04-08T07:04:23.096Z,88.59
2018-04-08T07:05:23.046Z,88.59
2018-04-08T07:06:23.119Z,88.63
2018-04-08T07:07:23.061Z,88.54
2018-04-08T07:08:23.117Z,88.54
2018-04-08T07:09:23.075Z,88.54
2018-04-08T07:10:23.158Z,88.54
2018-04-08T07:11:23.117Z,88.54
2018-04-08T07:12:23.146Z,88.54
2018-04-08T07:13:23.164Z,88.54
2018-04-08T07:14:23.161Z,88.54
2018-04-08T07:15:23.136Z,88.54
2018-04-08T07:16:23.185Z,88.54
2018-04-08T07:17:23.148Z,88.54
2018-04-08T07:18:23.226Z,88.63
2018-04-08T07:19:23.168Z,88.63
2018-04-08T07:20:23.197Z,88.63
2018-04-08T07:21:23.187Z,88.63
2018-04-08T07:22:23.322Z,88.63
2018-04-08T07:23:23.213Z,88.63
2018-04-08T07:24:23.327Z,88.73
2018-04-08T07:25:23.224Z,88.73
2018-04-08T07:26:23.362Z,88.73
2018-04-08T07:27:23.247Z,88.73
2018-04-08T07:28:23.358Z,88.73
2018-04-08T07:29:23.275Z,88.73
2018-04-08T07:30:23.467Z,88.82
2018-04-08T07:31:23.277Z,88.73
2018-04-08T07:32:23.375Z,88.73
2018-04-08T07:33:23.377Z,88.73
2018-04-08T07:34:23.391Z,88.73
2018-04-08T07:35:23.330Z,88.63
2018-04-08T07:36:23.404Z,88.63
2018-04-08T07:37:23.346Z,88.87
2018-04-08T07:38:23.444Z,88.96
2018-04-08T07:39:23.393Z,88.81
2018-04-08T07:40:23.431Z,88.34
2018-04-08T07:41:23.376Z,87.90
2018-04-08T07:42:23.441Z,87.62
2018-04-08T07:43:23.416Z,87.52
2018-04-08T07:44:23.451Z,87.43
2018-04-08T07:45:23.476Z,87.43
2018-04-08T07:46:23.480Z,87.33
2018-04-08T07:47:23.437Z,87.33
2018-04-08T07:48:23.528Z,87.33
2018-04-08T07:49:23.447Z,87.43
2018-04-08T07:50:23.494Z,87.43
2018-04-08T07:51:23.488Z,87.43
2018-04-08T07:52:23.507Z,87.23
2018-04-08T07:53:23.484Z,87.04
2018-04-08T07:54:23.526Z,86.99
2018-04-08T07:55:23.506Z,86.80
2018-04-08T07:56:23.624Z,86.61
2018-04-08T07:57:23.534Z,86.41
2018-04-08T07:58:23.644Z,86.36
2018-04-08T07:59:23.654Z,86.17
2018-04-08T08:00:23.658Z,86.08
2018-04-08T08:01:23.564Z,85.98
2018-04-08T08:02:23.669Z,85.88
2018-04-08T08:03:23.585Z,85.79
2018-04-08T08:04:23.702Z,85.83
2018-04-08T08:05:23.627Z,85.83
2018-04-08T08:06:23.698Z,85.74
2018-04-08T08:07:23.619Z,85.74
2018-04-08T08:08:23.710Z,85.74
2018-04-08T08:09:23.643Z,85.74
2018-04-08T08:10:23.787Z,85.74
2018-04-08T08:11:23.658Z,85.74
2018-04-08T08:12:23.741Z,85.74
2018-04-08T08:13:23.675Z,85.74
2018-04-08T08:14:23.743Z,85.64
2018-04-08T08:15:23.699Z,85.64
2018-04-08T08:16:23.761Z,85.58
2018-04-08T08:17:23.721Z,85.49
2018-04-08T08:18:23.734Z,85.39
2018-04-08T08:19:23.770Z,85.30
2018-04-08T08:20:23.800Z,85.21
2018-04-08T08:21:23.761Z,85.11
2018-04-08T08:22:23.792Z,85.01
2018-04-08T08:23:23.804Z,84.95
2018-04-08T08:24:23.835Z,84.95
2018-04-08T08:25:23.830Z,84.86
2018-04-08T08:26:23.860Z,84.86
2018-04-08T08:27:23.840Z,84.86
2018-04-08T08:28:23.948Z,84.77
2018-04-08T08:29:23.874Z,84.67
2018-04-08T08:30:23.975Z,84.58
2018-04-08T08:31:23.857Z,84.52
2018-04-08T08:32:23.960Z,84.42
2018-04-08T08:33:23.887Z,84.33
2018-04-08T08:34:23.982Z,84.23
2018-04-08T08:35:23.898Z,84.04
2018-04-08T08:36:24.055Z,83.75
2018-04-08T08:37:23.939Z,83.70
2018-04-08T08:38:24.067Z,83.51
2018-04-08T08:39:23.936Z,83.41
2018-04-08T08:40:24.054Z,83.31
2018-04-08T08:41:23.960Z,83.12
2018-04-08T08:42:24.062Z,83.07
2018-04-08T08:43:24.008Z,82.97
2018-04-08T08:44:23.990Z,82.78
2018-04-08T08:45:24.008Z,82.68
2018-04-08T08:46:24.005Z,82.59
2018-04-08T08:47:24.024Z,82.53
2018-04-08T08:48:24.036Z,82.34
2018-04-08T08:49:24.038Z,82.24
2018-04-08T08:50:24.062Z,82.24
2018-04-08T08:51:24.065Z,82.15
2018-04-08T08:52:24.069Z,81.96
2018-04-08T08:53:24.143Z,81.76
2018-04-08T08:54:24.094Z,81.61
2018-04-08T08:55:24.255Z,81.61
2018-04-08T08:56:24.118Z,81.52
2018-04-08T08:57:24.276Z,81.61
2018-04-08T08:58:24.129Z,81.52
2018-04-08T08:59:24.289Z,81.61
2018-04-08T09:00:24.205Z,81.23
2018-04-08T09:01:24.297Z,81.23
2018-04-08T09:02:24.181Z,81.23
2018-04-08T09:03:24.315Z,81.04
2018-04-08T09:04:24.250Z,80.94
2018-04-08T09:05:24.328Z,80.94
2018-04-08T09:06:24.227Z,80.94
2018-04-08T09:07:24.343Z,80.75
2018-04-08T09:08:24.244Z,80.75
2018-04-08T09:09:24.356Z,80.75
2018-04-08T09:10:24.264Z,80.75
2018-04-08T09:11:24.368Z,80.84
2018-04-08T09:12:24.290Z,80.94
2018-04-08T09:13:24.386Z,80.94
2018-04-08T09:14:24.306Z,80.94
2018-04-08T09:15:24.395Z,80.75
2018-04-08T09:16:24.360Z,80.75
2018-04-08T09:17:24.409Z,80.75
2018-04-08T09:18:24.356Z,80.60
2018-04-08T09:19:24.525Z,80.50
2018-04-08T09:20:24.389Z,80.30
2018-04-08T09:21:24.537Z,80.21
2018-04-08T09:22:24.392Z,80.21
2018-04-08T09:23:24.553Z,80.02
2018-04-08T09:24:24.416Z,79.92
2018-04-08T09:25:24.563Z,79.92
2018-04-08T09:26:24.429Z,79.82
2018-04-08T09:27:24.576Z,79.82
2018-04-08T09:28:24.460Z,79.73
2018-04-08T09:29:24.593Z,79.82
2018-04-08T09:30:24.475Z,79.63
2018-04-08T09:31:24.611Z,79.53
2018-04-08T09:32:24.500Z,79.58
2018-04-08T09:33:24.562Z,79.48
2018-04-08T09:34:24.546Z,79.28
2018-04-08T09:35:24.630Z,79.19
2018-04-08T09:36:24.577Z,79.19
2018-04-08T09:37:24.649Z,79.10
2018-04-08T09:38:24.566Z,79.00
2018-04-08T09:39:24.665Z,78.81
2018-04-08T09:40:24.585Z,78.52
2018-04-08T09:41:24.679Z,78.42
2018-04-08T09:42:24.609Z,78.27
2018-04-08T09:43:24.796Z,78.17
2018-04-08T09:44:24.626Z,78.08
2018-04-08T09:45:24.805Z,78.17
2018-04-08T09:46:24.645Z,78.17
2018-04-08T09:47:24.822Z,78.08
2018-04-08T09:48:24.673Z,77.88
2018-04-08T09:49:24.900Z,77.78
2018-04-08T09:50:24.689Z,77.59
2018-04-08T09:51:24.848Z,77.59
2018-04-08T09:52:24.719Z,77.50
2018-04-08T09:53:24.862Z,77.40
2018-04-08T09:54:24.742Z,77.21
2018-04-08T09:55:24.876Z,76.44
2018-04-08T09:56:24.769Z,76.06
2018-04-08T09:57:24.896Z,75.86
2018-04-08T09:58:24.783Z,75.71
2018-04-08T09:59:24.904Z,75.61
2018-04-08T10:00:24.804Z,75.42
2018-04-08T10:01:25.947Z,75.13
2018-04-08T10:02:24.830Z,74.93
2018-04-08T10:03:24.935Z,74.55
2018-04-08T10:04:24.855Z,74.55
2018-04-08T10:05:25.080Z,74.68
2018-04-08T10:06:24.888Z,74.74
2018-04-08T10:07:25.060Z,74.45
2018-04-08T10:08:24.897Z,74.65
2018-04-08T10:09:24.903Z,74.65
2018-04-08T10:10:24.919Z,74.68
2018-04-08T10:11:24.946Z,74.65
2018-04-08T10:12:25.020Z,74.58
2018-04-08T10:13:24.948Z,74.68
2018-04-08T10:14:25.039Z,74.68
2018-04-08T10:15:24.986Z,74.68
2018-04-08T10:16:25.046Z,74.58
2018-04-08T10:17:25.004Z,74.58
2018-04-08T10:18:25.058Z,74.49
2018-04-08T10:19:25.017Z,74.40
2018-04-08T10:20:25.072Z,74.30
2018-04-08T10:21:25.080Z,74.14
2018-04-08T10:22:25.087Z,74.05
2018-04-08T10:23:25.131Z,73.95
2018-04-08T10:24:25.093Z,73.66
2018-04-08T10:25:25.118Z,73.60
2018-04-08T10:26:25.096Z,73.50
2018-04-08T10:27:25.223Z,73.50
2018-04-08T10:28:25.128Z,73.41
2018-04-08T10:29:25.187Z,73.41
2018-04-08T10:30:25.147Z,73.21
2018-04-08T10:31:25.242Z,73.11
2018-04-08T10:32:25.187Z,73.02
2018-04-08T10:33:25.260Z,73.15
2018-04-08T10:34:25.196Z,73.15
2018-04-08T10:35:25.201Z,73.06
2018-04-08T10:36:25.209Z,73.06
2018-04-08T10:37:25.387Z,72.96
2018-04-08T10:38:25.237Z,72.86
2018-04-08T10:39:25.378Z,72.77
2018-04-08T10:40:25.259Z,72.67
2018-04-08T10:41:25.472Z,72.61
2018-04-08T10:42:25.285Z,72.52
2018-04-08T10:43:25.465Z,72.42
2018-04-08T10:44:25.319Z,72.22
2018-04-08T10:45:25.420Z,72.16
2018-04-08T10:46:25.324Z,71.97
2018-04-08T10:47:25.438Z,71.78
2018-04-08T10:48:25.373Z,71.68
2018-04-08T10:49:25.448Z,71.58
2018-04-08T10:50:25.378Z,71.52
2018-04-08T10:51:25.484Z,71.33
2018-04-08T10:52:25.406Z,71.14
2018-04-08T10:53:25.618Z,71.14
2018-04-08T10:54:25.490Z,71.14
2018-04-08T10:55:25.588Z,71.04
2018-04-08T10:56:25.434Z,70.94
2018-04-08T10:57:25.609Z,71.04
2018-04-08T10:58:25.467Z,71.14
2018-04-08T10:59:27.565Z,71.23
2018-04-08T11:00:25.488Z,71.33
2018-04-08T11:01:31.363Z,71.42
2018-04-08T11:02:25.507Z,71.42
2018-04-08T11:03:27.586Z,71.48
2018-04-08T11:04:25.560Z,71.48
2018-04-08T11:05:27.747Z,71.58
2018-04-08T11:06:25.549Z,71.58
2018-04-08T11:07:30.444Z,71.48
2018-04-08T11:08:25.655Z,71.48
2018-04-08T11:09:32.382Z,71.48
2018-04-08T11:10:25.607Z,71.48
2018-04-08T11:11:26.043Z,71.48
2018-04-08T11:12:25.625Z,71.39
2018-04-08T11:13:25.816Z,71.30
2018-04-08T11:14:25.644Z,71.20
2018-04-08T11:15:25.856Z,71.20
2018-04-08T11:16:25.683Z,71.00
2018-04-08T11:17:40.381Z,70.90
2018-04-08T11:18:25.701Z,70.94
2018-04-08T11:19:25.863Z,70.84
2018-04-08T11:20:25.719Z,70.46
2018-04-08T11:21:58.837Z,70.26
2018-04-08T11:22:25.769Z,70.17
2018-04-08T11:23:25.752Z,70.07
2018-04-08T11:24:26.937Z,70.07
2018-04-08T11:25:25.775Z,69.98
2018-04-08T11:26:30.962Z,69.88
2018-04-08T11:27:25.845Z,69.88
2018-04-08T11:28:26.015Z,69.88
2018-04-08T11:29:25.824Z,69.68
2018-04-08T11:30:26.037Z,69.40
2018-04-08T11:31:25.853Z,69.14
2018-04-08T11:32:26.111Z,69.14
2018-04-08T11:33:25.885Z,69.24
2018-04-08T11:34:26.063Z,69.24
2018-04-08T11:35:25.898Z,69.24
2018-04-08T11:36:27.091Z,69.24
2018-04-08T11:37:25.918Z,69.04
2018-04-08T11:38:25.934Z,69.04
2018-04-08T11:39:32.878Z,68.66
2018-04-08T11:40:25.968Z,68.66
2018-04-08T11:41:25.968Z,68.75
2018-04-08T11:42:28.174Z,68.66
2018-04-08T11:43:25.988Z,68.56
2018-04-08T11:44:26.229Z,68.56
2018-04-08T11:45:26.030Z,68.56
2018-04-08T11:46:26.038Z,68.46
2018-04-08T11:47:26.255Z,68.27
2018-04-08T11:48:26.078Z,68.08
2018-04-08T11:49:28.208Z,68.08
2018-04-08T11:50:26.077Z,67.88
2018-04-08T11:51:26.281Z,67.88
2018-04-08T11:52:26.132Z,67.88
2018-04-08T11:53:38.888Z,67.79
2018-04-08T11:54:26.131Z,67.69
2018-04-08T11:55:26.136Z,67.69
2018-04-08T11:56:26.316Z,67.59
2018-04-08T11:57:26.168Z,67.69
2018-04-08T11:58:26.218Z,67.69
2018-04-08T11:59:26.204Z,67.79
2018-04-08T12:00:27.259Z,67.79
2018-04-08T12:01:26.211Z,67.69
2018-04-08T12:02:26.348Z,67.21
2018-04-08T12:03:26.233Z,67.11
2018-04-08T12:04:26.367Z,66.91
2018-04-08T12:05:26.294Z,66.72
2018-04-08T12:06:26.491Z,66.43
2018-04-08T12:07:26.289Z,66.43
2018-04-08T12:08:26.306Z,66.47
2018-04-08T12:09:26.323Z,66.56
2018-04-08T12:10:26.333Z,66.66
2018-04-08T12:11:28.462Z,66.75
2018-04-08T12:12:26.359Z,66.72
2018-04-08T12:13:37.305Z,66.82
2018-04-08T12:14:26.370Z,66.91
2018-04-08T12:15:26.444Z,66.53
2018-04-08T12:16:26.428Z,66.43
2018-04-08T12:17:26.464Z,66.33
2018-04-08T12:18:26.422Z,66.33
2018-04-08T12:19:27.486Z,66.33
2018-04-08T12:20:26.485Z,66.33
2018-04-08T12:21:26.585Z,66.14
2018-04-08T12:22:26.498Z,65.95
2018-04-08T12:23:28.543Z,65.69
2018-04-08T12:24:26.515Z,65.40
2018-04-08T12:25:26.610Z,65.40
2018-04-08T12:26:26.530Z,65.20
2018-04-08T12:27:26.657Z,65.01
2018-04-08T12:28:26.554Z,64.53
2018-04-08T12:29:26.636Z,64.43
2018-04-08T12:30:26.587Z,64.43
2018-04-08T12:31:38.329Z,64.43
2018-04-08T12:32:26.612Z,64.17
2018-04-08T12:33:32.312Z,64.17
2018-04-08T12:34:26.929Z,63.89
2018-04-08T12:35:47.654Z,63.89
2018-04-08T12:36:26.656Z,63.89
2018-04-08T12:37:28.741Z,63.89
2018-04-08T12:38:26.683Z,63.79
2018-04-08T12:39:26.809Z,63.40
2018-04-08T12:40:26.710Z,62.63
2018-04-08T12:41:28.770Z,62.34
2018-04-08T12:42:26.732Z,62.53
2018-04-08T12:43:26.886Z,62.72
2018-04-08T12:44:26.757Z,62.82
2018-04-08T12:45:28.899Z,62.92
2018-04-08T12:46:26.781Z,62.92
2018-04-08T12:47:28.912Z,62.82
2018-04-08T12:48:26.812Z,62.75
2018-04-08T12:49:27.902Z,62.75
2018-04-08T12:50:26.835Z,62.75
2018-04-08T12:51:26.892Z,62.66
2018-04-08T12:52:26.881Z,62.66